Terminal Aerodrome Forecast
Issued by NWS Charleston, WV

Current Version | Previous Version | Graphics & Text | Print | Product List | Glossary On
Versions: 1 2 3 4 5 6 7 8 9 10 11 12 13 14 15 16 17 18 19 20 21 22 23
000
FTUS41 KRLX 302300
TAFHTS
TAF
KHTS 302334Z 0100/0124 24003KT P6SM BKN070 BKN090 OVC110
     FM010400 00000KT 6SM BR BKN060
     FM010500 00000KT 6SM BR BKN010
     FM011500 00000KT P6SM SCT012
     FM011900 VRB03KT P6SM SCT040=

USA.gov is the U.S. government's official web portal to all federal, state and local government web resources and services.